Emine Anne — TCBX9 — position and weather

sailwx.info

Track history (hours):
 
Tides and Currents Weather Stations Pressure Air Temp Water Temp Dewpoint Dewpoint Depression Visibility Wind Speed Wind Dir Waves Ship Positions

Emine Anne

Last reported at 2017-Mar-21 21:26 UTC. Time now 2017-Mar-27 10:40 UTC.
Position N 37°58' E 024°40'.

Length 69 m; draft 2.4 m.

Type: Cargo ship. MMSI: 271002305.

Date/timePositionNaut miles runAvg speedWind from/ knotsBaromVisibWave heightAir tempDewpointWater temp
2017-Mar-21 21:26N 37°58' E 024°40'8 9.6
2017-Mar-21 20:33N 37°52' E 024°32'10 9.5
2017-Mar-21 19:32N 37°46' E 024°23'33 8.3
2017-Mar-21 15:33N 37°42' E 023°41'9 9.1
2017-Mar-21 14:31N 37°51' E 023°36'7 7.7
2017-Mar-21 13:33N 37°57' E 023°33'5 4.4
2017-Mar-21 12:32N 38°02' E 023°33'0 0.0
2017-Mar-21 11:29N 38°02' E 023°33'0 0.0
2017-Mar-21 10:30N 38°02' E 023°33'0 0.0
2017-Mar-21 09:33N 38°02' E 023°33'0 0.0
2017-Mar-21 08:31N 38°02' E 023°33'0 0.0
2017-Mar-21 07:28N 38°02' E 023°33'0 0.0
2017-Mar-21 06:26N 38°02' E 023°33'0 0.0
2017-Mar-21 05:31N 38°02' E 023°33'0 0.0
2017-Mar-21 04:31N 38°02' E 023°33'0 0.0
2017-Mar-21 03:26N 38°02' E 023°33'0 0.0
2017-Mar-21 02:32N 38°02' E 023°33'0 0.0
2017-Mar-21 01:30N 38°02' E 023°33'0 0.0
2017-Mar-21 00:30N 38°02' E 023°33'0 0.0
2017-Mar-20 23:31N 38°02' E 023°33'0 0.0
2017-Mar-20 22:32N 38°02' E 023°33'0 0.0
2017-Mar-20 21:31N 38°02' E 023°33'0 0.0
2017-Mar-20 20:26N 38°02' E 023°33'0 0.0
2017-Mar-20 19:33N 38°02' E 023°33'0 0.0
2017-Mar-20 18:32N 38°02' E 023°33'0 0.0
2017-Mar-20 17:32N 38°02' E 023°33'0 0.0
2017-Mar-20 16:31N 38°02' E 023°33'0 0.0
2017-Mar-20 15:30N 38°02' E 023°33'0 0.0
2017-Mar-20 14:33N 38°02' E 023°33'0 0.0
2017-Mar-20 13:33N 38°02' E 023°33'0 0.0
2017-Mar-20 12:31N 38°02' E 023°33'0 0.0
2017-Mar-20 11:33N 38°02' E 023°33'0 0.0
2017-Mar-20 10:24N 38°02' E 023°33'0 0.0
2017-Mar-20 09:33N 38°02' E 023°33'0 0.0
2017-Mar-20 08:30N 38°02' E 023°33'0 0.0
2017-Mar-20 07:32N 38°02' E 023°33'0 0.0
2017-Mar-20 06:31N 38°02' E 023°33'0 0.0
2017-Mar-20 05:29N 38°02' E 023°33'0 0.0
2017-Mar-20 04:30N 38°02' E 023°33'0 0.0
2017-Mar-20 03:33N 38°02' E 023°33'0 0.0
2017-Mar-20 02:33N 38°02' E 023°33'0 0.0
2017-Mar-20 01:31N 38°02' E 023°33'0 0.0
2017-Mar-20 00:33N 38°02' E 023°33'0 0.0
2017-Mar-19 23:33N 38°02' E 023°33'0 0.0
2017-Mar-19 22:27N 38°02' E 023°33'0 0.0
2017-Mar-19 21:33N 38°02' E 023°33'0 0.0
2017-Mar-19 20:32N 38°02' E 023°33'0 0.0
2017-Mar-19 19:33N 38°02' E 023°33'0 0.0
2017-Mar-19 18:30N 38°02' E 023°33'0 0.0
2017-Mar-19 17:31N 38°02' E 023°33'0 0.0
2017-Mar-19 16:31N 38°02' E 023°33'0 0.0
2017-Mar-19 15:31N 38°02' E 023°33'0 0.0
2017-Mar-19 14:28N 38°02' E 023°33'0 0.0
2017-Mar-19 13:31N 38°02' E 023°33'0 0.0
2017-Mar-19 12:33N 38°02' E 023°33'0 0.0
2017-Mar-19 11:32N 38°02' E 023°33'0 0.0
2017-Mar-19 10:27N 38°02' E 023°33'0 0.0
2017-Mar-19 09:30N 38°02' E 023°33'0 0.0
2017-Mar-19 08:32N 38°02' E 023°33'0 0.0
2017-Mar-19 07:29N 38°02' E 023°33'0 0.0
2017-Mar-19 06:32N 38°02' E 023°33'0 0.0
2017-Mar-19 05:30N 38°02' E 023°33'0 0.0
2017-Mar-19 04:33N 38°02' E 023°33'0 0.0
2017-Mar-19 03:32N 38°02' E 023°33'0 0.0
2017-Mar-19 02:26N 38°02' E 023°33'0 0.0
2017-Mar-19 01:30N 38°02' E 023°33'0 0.0
2017-Mar-19 00:29N 38°02' E 023°33'0 0.0
2017-Mar-18 23:32N 38°02' E 023°33'0 0.0
2017-Mar-18 22:31N 38°02' E 023°33'0 0.0
2017-Mar-18 21:31N 38°02' E 023°33'0 0.0
2017-Mar-18 20:30N 38°02' E 023°33'0 0.0
2017-Mar-18 19:31N 38°02' E 023°33'0 0.0
2017-Mar-18 18:33N 38°02' E 023°33'0 0.0
2017-Mar-18 17:31N 38°02' E 023°33'0 0.0
2017-Mar-18 16:33N 38°02' E 023°33'0 0.0
2017-Mar-18 15:33N 38°02' E 023°33'0 0.0
2017-Mar-18 14:28N 38°02' E 023°33'0 0.0
2017-Mar-18 13:32N 38°02' E 023°33'0 0.0
2017-Mar-18 12:33N 38°02' E 023°33'0 0.0
2017-Mar-18 11:33N 38°02' E 023°33'0 0.0
2017-Mar-18 10:30N 38°02' E 023°33'0 0.0
2017-Mar-18 09:33N 38°02' E 023°33'0 0.0
2017-Mar-18 08:31N 38°02' E 023°33'0 0.0
2017-Mar-18 07:31N 38°02' E 023°33'0 0.0
2017-Mar-18 06:31N 38°02' E 023°33'0 0.0
2017-Mar-18 05:33N 38°02' E 023°33'0 0.0
2017-Mar-18 04:31N 38°02' E 023°33'0 0.0
2017-Mar-18 03:28N 38°02' E 023°33'0 0.0
2017-Mar-18 02:32N 38°02' E 023°33'0 0.0
2017-Mar-18 01:27N 38°02' E 023°33'0 0.0
2017-Mar-18 00:31N 38°02' E 023°33'0 0.0
2017-Mar-17 23:10N 38°02' E 023°33'0 0.0
2017-Mar-17 22:32N 38°02' E 023°33'0 0.0
2017-Mar-17 21:28N 38°02' E 023°33'0 0.0
2017-Mar-17 20:31N 38°02' E 023°33'0 0.0
2017-Mar-17 19:34N 38°02' E 023°33'0 0.0
2017-Mar-17 18:32N 38°02' E 023°33'0 0.0
2017-Mar-17 17:26N 38°02' E 023°33'3 2.9
2017-Mar-17 16:33N 37°59' E 023°33'6 5.7
2017-Mar-17 15:34N 37°55' E 023°37'6 6.2
2017-Mar-17 14:33N 37°49' E 023°40'  
2017-Mar-14 14:31N 40°53' E 029°09'2 1.6
2017-Mar-14 13:29N 40°53' E 029°11'0 0.0
2017-Mar-14 12:15N 40°53' E 029°11'0 0.0
2017-Mar-14 11:22N 40°53' E 029°11'0 0.0
2017-Mar-14 09:30N 40°53' E 029°11'0 0.0
2017-Mar-14 08:32N 40°53' E 029°11'0 0.0
2017-Mar-14 07:20N 40°53' E 029°11'0 0.0
2017-Mar-14 05:28N 40°53' E 029°11'0 0.0
2017-Mar-14 04:33N 40°53' E 029°11'0 0.0
2017-Mar-14 03:23N 40°53' E 029°11'0 0.0
2017-Mar-14 02:24N 40°53' E 029°11'0 0.1
2017-Mar-14 01:33N 40°53' E 029°11'0 0.0
2017-Mar-14 00:29N 40°53' E 029°11'0 0.0
2017-Mar-13 23:31N 40°53' E 029°11'0 0.0
2017-Mar-13 22:31N 40°53' E 029°11'0 0.0
2017-Mar-13 20:32N 40°53' E 029°11'0 0.0
2017-Mar-13 19:33N 40°53' E 029°11'0 0.0
2017-Mar-13 18:30N 40°53' E 029°11'  
Track history (hours):
 
Tides and Currents Weather Stations Pressure Air Temp Water Temp Dewpoint Dewpoint Depression Visibility Wind Speed Wind Dir Waves Ship Positions

Emine Anne

Last reported at 2017-Mar-21 21:26 UTC. Time now 2017-Mar-27 10:40 UTC.
Position N 37°58' E 024°40'.

Length 69 m; draft 2.4 m.

Type: Cargo ship. MMSI: 271002305.

Date/timePositionNaut miles runAvg speedWind from/ knotsBaromVisibWave heightAir tempDewpointWater temp
2017-Mar-21 21:26N 37°58' E 024°40'8 9.6
2017-Mar-21 20:33N 37°52' E 024°32'10 9.5
2017-Mar-21 19:32N 37°46' E 024°23'33 8.3
2017-Mar-21 15:33N 37°42' E 023°41'9 9.1
2017-Mar-21 14:31N 37°51' E 023°36'7 7.7
2017-Mar-21 13:33N 37°57' E 023°33'5 4.4
2017-Mar-21 12:32N 38°02' E 023°33'0 0.0
2017-Mar-21 11:29N 38°02' E 023°33'0 0.0
2017-Mar-21 10:30N 38°02' E 023°33'0 0.0
2017-Mar-21 09:33N 38°02' E 023°33'0 0.0
2017-Mar-21 08:31N 38°02' E 023°33'0 0.0
2017-Mar-21 07:28N 38°02' E 023°33'0 0.0
2017-Mar-21 06:26N 38°02' E 023°33'0 0.0
2017-Mar-21 05:31N 38°02' E 023°33'0 0.0
2017-Mar-21 04:31N 38°02' E 023°33'0 0.0
2017-Mar-21 03:26N 38°02' E 023°33'0 0.0
2017-Mar-21 02:32N 38°02' E 023°33'0 0.0
2017-Mar-21 01:30N 38°02' E 023°33'0 0.0
2017-Mar-21 00:30N 38°02' E 023°33'0 0.0
2017-Mar-20 23:31N 38°02' E 023°33'0 0.0
2017-Mar-20 22:32N 38°02' E 023°33'0 0.0
2017-Mar-20 21:31N 38°02' E 023°33'0 0.0
2017-Mar-20 20:26N 38°02' E 023°33'0 0.0
2017-Mar-20 19:33N 38°02' E 023°33'0 0.0
2017-Mar-20 18:32N 38°02' E 023°33'0 0.0
2017-Mar-20 17:32N 38°02' E 023°33'0 0.0
2017-Mar-20 16:31N 38°02' E 023°33'0 0.0
2017-Mar-20 15:30N 38°02' E 023°33'0 0.0
2017-Mar-20 14:33N 38°02' E 023°33'0 0.0
2017-Mar-20 13:33N 38°02' E 023°33'0 0.0
2017-Mar-20 12:31N 38°02' E 023°33'0 0.0
2017-Mar-20 11:33N 38°02' E 023°33'0 0.0
2017-Mar-20 10:24N 38°02' E 023°33'0 0.0
2017-Mar-20 09:33N 38°02' E 023°33'0 0.0
2017-Mar-20 08:30N 38°02' E 023°33'0 0.0
2017-Mar-20 07:32N 38°02' E 023°33'0 0.0
2017-Mar-20 06:31N 38°02' E 023°33'0 0.0
2017-Mar-20 05:29N 38°02' E 023°33'0 0.0
2017-Mar-20 04:30N 38°02' E 023°33'0 0.0
2017-Mar-20 03:33N 38°02' E 023°33'0 0.0
2017-Mar-20 02:33N 38°02' E 023°33'0 0.0
2017-Mar-20 01:31N 38°02' E 023°33'0 0.0
2017-Mar-20 00:33N 38°02' E 023°33'0 0.0
2017-Mar-19 23:33N 38°02' E 023°33'0 0.0
2017-Mar-19 22:27N 38°02' E 023°33'0 0.0
2017-Mar-19 21:33N 38°02' E 023°33'0 0.0
2017-Mar-19 20:32N 38°02' E 023°33'0 0.0
2017-Mar-19 19:33N 38°02' E 023°33'0 0.0
2017-Mar-19 18:30N 38°02' E 023°33'0 0.0
2017-Mar-19 17:31N 38°02' E 023°33'0 0.0
2017-Mar-19 16:31N 38°02' E 023°33'0 0.0
2017-Mar-19 15:31N 38°02' E 023°33'0 0.0
2017-Mar-19 14:28N 38°02' E 023°33'0 0.0
2017-Mar-19 13:31N 38°02' E 023°33'0 0.0
2017-Mar-19 12:33N 38°02' E 023°33'0 0.0
2017-Mar-19 11:32N 38°02' E 023°33'0 0.0
2017-Mar-19 10:27N 38°02' E 023°33'0 0.0
2017-Mar-19 09:30N 38°02' E 023°33'0 0.0
2017-Mar-19 08:32N 38°02' E 023°33'0 0.0
2017-Mar-19 07:29N 38°02' E 023°33'0 0.0
2017-Mar-19 06:32N 38°02' E 023°33'0 0.0
2017-Mar-19 05:30N 38°02' E 023°33'0 0.0
2017-Mar-19 04:33N 38°02' E 023°33'0 0.0
2017-Mar-19 03:32N 38°02' E 023°33'0 0.0
2017-Mar-19 02:26N 38°02' E 023°33'0 0.0
2017-Mar-19 01:30N 38°02' E 023°33'0 0.0
2017-Mar-19 00:29N 38°02' E 023°33'0 0.0
2017-Mar-18 23:32N 38°02' E 023°33'0 0.0
2017-Mar-18 22:31N 38°02' E 023°33'0 0.0
2017-Mar-18 21:31N 38°02' E 023°33'0 0.0
2017-Mar-18 20:30N 38°02' E 023°33'0 0.0
2017-Mar-18 19:31N 38°02' E 023°33'0 0.0
2017-Mar-18 18:33N 38°02' E 023°33'0 0.0
2017-Mar-18 17:31N 38°02' E 023°33'0 0.0
2017-Mar-18 16:33N 38°02' E 023°33'0 0.0
2017-Mar-18 15:33N 38°02' E 023°33'0 0.0
2017-Mar-18 14:28N 38°02' E 023°33'0 0.0
2017-Mar-18 13:32N 38°02' E 023°33'0 0.0
2017-Mar-18 12:33N 38°02' E 023°33'0 0.0
2017-Mar-18 11:33N 38°02' E 023°33'0 0.0
2017-Mar-18 10:30N 38°02' E 023°33'0 0.0
2017-Mar-18 09:33N 38°02' E 023°33'0 0.0
2017-Mar-18 08:31N 38°02' E 023°33'0 0.0
2017-Mar-18 07:31N 38°02' E 023°33'0 0.0
2017-Mar-18 06:31N 38°02' E 023°33'0 0.0
2017-Mar-18 05:33N 38°02' E 023°33'0 0.0
2017-Mar-18 04:31N 38°02' E 023°33'0 0.0
2017-Mar-18 03:28N 38°02' E 023°33'0 0.0
2017-Mar-18 02:32N 38°02' E 023°33'0 0.0
2017-Mar-18 01:27N 38°02' E 023°33'0 0.0
2017-Mar-18 00:31N 38°02' E 023°33'0 0.0
2017-Mar-17 23:10N 38°02' E 023°33'0 0.0
2017-Mar-17 22:32N 38°02' E 023°33'0 0.0
2017-Mar-17 21:28N 38°02' E 023°33'0 0.0
2017-Mar-17 20:31N 38°02' E 023°33'0 0.0
2017-Mar-17 19:34N 38°02' E 023°33'0 0.0
2017-Mar-17 18:32N 38°02' E 023°33'0 0.0
2017-Mar-17 17:26N 38°02' E 023°33'3 2.9
2017-Mar-17 16:33N 37°59' E 023°33'6 5.7
2017-Mar-17 15:34N 37°55' E 023°37'6 6.2
2017-Mar-17 14:33N 37°49' E 023°40'  
2017-Mar-14 14:31N 40°53' E 029°09'2 1.6
2017-Mar-14 13:29N 40°53' E 029°11'0 0.0
2017-Mar-14 12:15N 40°53' E 029°11'0 0.0
2017-Mar-14 11:22N 40°53' E 029°11'0 0.0
2017-Mar-14 09:30N 40°53' E 029°11'0 0.0
2017-Mar-14 08:32N 40°53' E 029°11'0 0.0
2017-Mar-14 07:20N 40°53' E 029°11'0 0.0
2017-Mar-14 05:28N 40°53' E 029°11'0 0.0
2017-Mar-14 04:33N 40°53' E 029°11'0 0.0
2017-Mar-14 03:23N 40°53' E 029°11'0 0.0
2017-Mar-14 02:24N 40°53' E 029°11'0 0.1
2017-Mar-14 01:33N 40°53' E 029°11'0 0.0
2017-Mar-14 00:29N 40°53' E 029°11'0 0.0
2017-Mar-13 23:31N 40°53' E 029°11'0 0.0
2017-Mar-13 22:31N 40°53' E 029°11'0 0.0
2017-Mar-13 20:32N 40°53' E 029°11'0 0.0
2017-Mar-13 19:33N 40°53' E 029°11'0 0.0
2017-Mar-13 18:30N 40°53' E 029°11'  

Dump ship's entire track history